sensor_id;sensor_type;location;lat;lon;timestamp;P1;durP1;ratioP1;P2;durP2;ratioP2
19087;SDS011;9676;50.916;13.352;2023-02-24T00:00:18;15.23;;;13.73;;
19087;SDS011;9676;50.916;13.352;2023-02-24T00:03:24;15.90;;;14.20;;
19087;SDS011;9676;50.916;13.352;2023-02-24T00:06:14;15.50;;;13.90;;
19087;SDS011;9676;50.916;13.352;2023-02-24T00:09:05;15.23;;;13.70;;
19087;SDS011;9676;50.916;13.352;2023-02-24T00:11:57;15.03;;;13.53;;
19087;SDS011;9676;50.916;13.352;2023-02-24T00:14:49;15.37;;;13.77;;
19087;SDS011;9676;50.916;13.352;2023-02-24T00:17:38;14.87;;;13.37;;
19087;SDS011;9676;50.916;13.352;2023-02-24T00:20:28;15.40;;;13.50;;
19087;SDS011;9676;50.916;13.352;2023-02-24T00:23:19;15.97;;;14.37;;
19087;SDS011;9676;50.916;13.352;2023-02-24T00:26:11;17.20;;;14.67;;
19087;SDS011;9676;50.916;13.352;2023-02-24T00:29:03;15.70;;;14.00;;
19087;SDS011;9676;50.916;13.352;2023-02-24T00:31:55;16.60;;;14.80;;
19087;SDS011;9676;50.916;13.352;2023-02-24T00:34:47;16.53;;;14.60;;
19087;SDS011;9676;50.916;13.352;2023-02-24T00:37:36;16.13;;;14.47;;
19087;SDS011;9676;50.916;13.352;2023-02-24T00:40:26;16.60;;;14.90;;
19087;SDS011;9676;50.916;13.352;2023-02-24T00:43:20;16.47;;;14.47;;
19087;SDS011;9676;50.916;13.352;2023-02-24T00:46:09;15.60;;;14.00;;
19087;SDS011;9676;50.916;13.352;2023-02-24T00:48:59;16.50;;;14.80;;
19087;SDS011;9676;50.916;13.352;2023-02-24T00:51:51;14.67;;;13.17;;
19087;SDS011;9676;50.916;13.352;2023-02-24T00:54:42;15.50;;;13.90;;
19087;SDS011;9676;50.916;13.352;2023-02-24T00:57:33;14.50;;;13.03;;
19087;SDS011;9676;50.916;13.352;2023-02-24T01:00:24;14.47;;;12.97;;
19087;SDS011;9676;50.916;13.352;2023-02-24T01:03:14;13.80;;;12.40;;
19087;SDS011;9676;50.916;13.352;2023-02-24T01:06:04;14.30;;;12.90;;
19087;SDS011;9676;50.916;13.352;2023-02-24T01:08:54;15.30;;;13.70;;
19087;SDS011;9676;50.916;13.352;2023-02-24T01:11:47;13.90;;;12.50;;
19087;SDS011;9676;50.916;13.352;2023-02-24T01:15:09;13.80;;;12.40;;
19087;SDS011;9676;50.916;13.352;2023-02-24T01:18:00;14.20;;;12.70;;
19087;SDS011;9676;50.916;13.352;2023-02-24T01:20:50;14.10;;;12.70;;
19087;SDS011;9676;50.916;13.352;2023-02-24T01:23:40;14.17;;;12.70;;
19087;SDS011;9676;50.916;13.352;2023-02-24T01:26:29;14.43;;;12.97;;
19087;SDS011;9676;50.916;13.352;2023-02-24T01:29:19;14.70;;;13.10;;
19087;SDS011;9676;50.916;13.352;2023-02-24T01:32:11;14.97;;;13.30;;
19087;SDS011;9676;50.916;13.352;2023-02-24T01:35:07;14.70;;;13.20;;
19087;SDS011;9676;50.916;13.352;2023-02-24T01:37:58;14.10;;;12.67;;
19087;SDS011;9676;50.916;13.352;2023-02-24T01:40:54;14.37;;;12.87;;
19087;SDS011;9676;50.916;13.352;2023-02-24T01:43:54;14.60;;;13.10;;
19087;SDS011;9676;50.916;13.352;2023-02-24T01:46:49;14.57;;;13.10;;
19087;SDS011;9676;50.916;13.352;2023-02-24T01:49:41;14.77;;;13.20;;
19087;SDS011;9676;50.916;13.352;2023-02-24T01:52:34;14.50;;;12.97;;
19087;SDS011;9676;50.916;13.352;2023-02-24T01:55:26;14.27;;;12.80;;
19087;SDS011;9676;50.916;13.352;2023-02-24T01:58:21;14.30;;;12.87;;
19087;SDS011;9676;50.916;13.352;2023-02-24T02:01:16;14.50;;;13.00;;
19087;SDS011;9676;50.916;13.352;2023-02-24T02:04:08;13.30;;;11.93;;
19087;SDS011;9676;50.916;13.352;2023-02-24T02:07:04;13.97;;;12.57;;
19087;SDS011;9676;50.916;13.352;2023-02-24T02:09:58;13.57;;;12.20;;
19087;SDS011;9676;50.916;13.352;2023-02-24T02:12:50;14.00;;;12.50;;
19087;SDS011;9676;50.916;13.352;2023-02-24T02:15:43;14.07;;;12.70;;
19087;SDS011;9676;50.916;13.352;2023-02-24T02:18:46;14.00;;;12.57;;
19087;SDS011;9676;50.916;13.352;2023-02-24T02:24:55;13.70;;;12.30;;
19087;SDS011;9676;50.916;13.352;2023-02-24T02:28:00;13.53;;;12.13;;
19087;SDS011;9676;50.916;13.352;2023-02-24T02:31:21;13.70;;;12.30;;
19087;SDS011;9676;50.916;13.352;2023-02-24T02:34:45;13.80;;;12.30;;
19087;SDS011;9676;50.916;13.352;2023-02-24T02:37:42;13.00;;;11.80;;
19087;SDS011;9676;50.916;13.352;2023-02-24T02:40:43;13.27;;;11.93;;
19087;SDS011;9676;50.916;13.352;2023-02-24T02:43:40;13.70;;;12.40;;
19087;SDS011;9676;50.916;13.352;2023-02-24T02:46:37;14.70;;;12.67;;
19087;SDS011;9676;50.916;13.352;2023-02-24T02:49:31;14.20;;;12.70;;
19087;SDS011;9676;50.916;13.352;2023-02-24T02:52:28;14.83;;;12.90;;
19087;SDS011;9676;50.916;13.352;2023-02-24T02:55:25;14.77;;;13.20;;
19087;SDS011;9676;50.916;13.352;2023-02-24T02:58:23;14.87;;;13.37;;
19087;SDS011;9676;50.916;13.352;2023-02-24T03:01:18;15.33;;;13.83;;
19087;SDS011;9676;50.916;13.352;2023-02-24T03:04:11;14.60;;;13.10;;
19087;SDS011;9676;50.916;13.352;2023-02-24T03:07:04;14.70;;;13.20;;
19087;SDS011;9676;50.916;13.352;2023-02-24T03:09:55;14.10;;;12.70;;
19087;SDS011;9676;50.916;13.352;2023-02-24T03:12:50;14.50;;;13.00;;
19087;SDS011;9676;50.916;13.352;2023-02-24T03:15:44;14.97;;;13.37;;
19087;SDS011;9676;50.916;13.352;2023-02-24T03:18:36;13.57;;;12.27;;
19087;SDS011;9676;50.916;13.352;2023-02-24T03:21:31;14.30;;;12.83;;
19087;SDS011;9676;50.916;13.352;2023-02-24T03:24:24;13.40;;;12.00;;
19087;SDS011;9676;50.916;13.352;2023-02-24T03:27:21;13.53;;;12.13;;
19087;SDS011;9676;50.916;13.352;2023-02-24T03:30:17;13.20;;;11.87;;
19087;SDS011;9676;50.916;13.352;2023-02-24T03:33:15;13.30;;;11.90;;
19087;SDS011;9676;50.916;13.352;2023-02-24T03:36:11;12.83;;;11.53;;
19087;SDS011;9676;50.916;13.352;2023-02-24T03:39:01;13.93;;;12.57;;
19087;SDS011;9676;50.916;13.352;2023-02-24T03:41:57;13.63;;;12.33;;
19087;SDS011;9676;50.916;13.352;2023-02-24T03:44:55;12.60;;;11.40;;
19087;SDS011;9676;50.916;13.352;2023-02-24T03:47:45;16.13;;;11.43;;
19087;SDS011;9676;50.916;13.352;2023-02-24T03:50:34;12.83;;;11.40;;
19087;SDS011;9676;50.916;13.352;2023-02-24T03:53:37;12.60;;;11.30;;
19087;SDS011;9676;50.916;13.352;2023-02-24T03:56:48;11.87;;;10.70;;
19087;SDS011;9676;50.916;13.352;2023-02-24T03:59:52;12.03;;;10.83;;
19087;SDS011;9676;50.916;13.352;2023-02-24T04:03:10;11.97;;;10.77;;
19087;SDS011;9676;50.916;13.352;2023-02-24T04:06:19;12.03;;;10.93;;
19087;SDS011;9676;50.916;13.352;2023-02-24T04:09:16;11.30;;;10.30;;
19087;SDS011;9676;50.916;13.352;2023-02-24T04:12:24;11.87;;;10.67;;
19087;SDS011;9676;50.916;13.352;2023-02-24T04:15:25;11.27;;;10.10;;
19087;SDS011;9676;50.916;13.352;2023-02-24T04:18:19;11.17;;;10.17;;
19087;SDS011;9676;50.916;13.352;2023-02-24T04:21:13;12.00;;;10.70;;
19087;SDS011;9676;50.916;13.352;2023-02-24T04:24:07;11.67;;;10.47;;
19087;SDS011;9676;50.916;13.352;2023-02-24T04:27:04;11.33;;;10.23;;
19087;SDS011;9676;50.916;13.352;2023-02-24T04:30:00;10.80;;;9.80;;
19087;SDS011;9676;50.916;13.352;2023-02-24T04:32:54;11.10;;;10.00;;
19087;SDS011;9676;50.916;13.352;2023-02-24T04:35:44;11.13;;;10.03;;
19087;SDS011;9676;50.916;13.352;2023-02-24T04:38:38;11.00;;;9.97;;
19087;SDS011;9676;50.916;13.352;2023-02-24T04:41:29;10.70;;;9.80;;
19087;SDS011;9676;50.916;13.352;2023-02-24T04:44:18;10.53;;;9.53;;
19087;SDS011;9676;50.916;13.352;2023-02-24T04:47:10;11.30;;;10.20;;
19087;SDS011;9676;50.916;13.352;2023-02-24T04:50:01;10.87;;;9.87;;
19087;SDS011;9676;50.916;13.352;2023-02-24T04:52:53;11.03;;;10.03;;
19087;SDS011;9676;50.916;13.352;2023-02-24T04:55:47;11.30;;;10.20;;
19087;SDS011;9676;50.916;13.352;2023-02-24T04:58:37;11.23;;;10.23;;
19087;SDS011;9676;50.916;13.352;2023-02-24T05:01:29;11.20;;;10.10;;
19087;SDS011;9676;50.916;13.352;2023-02-24T05:04:18;12.00;;;10.83;;
19087;SDS011;9676;50.916;13.352;2023-02-24T05:07:09;13.03;;;11.73;;
19087;SDS011;9676;50.916;13.352;2023-02-24T05:10:02;11.77;;;10.57;;
19087;SDS011;9676;50.916;13.352;2023-02-24T05:12:52;12.30;;;11.10;;
19087;SDS011;9676;50.916;13.352;2023-02-24T05:15:41;11.97;;;10.77;;
19087;SDS011;9676;50.916;13.352;2023-02-24T05:18:32;12.03;;;10.77;;
19087;SDS011;9676;50.916;13.352;2023-02-24T05:21:23;11.30;;;10.30;;
19087;SDS011;9676;50.916;13.352;2023-02-24T05:24:23;12.37;;;10.93;;
19087;SDS011;9676;50.916;13.352;2023-02-24T05:27:13;12.20;;;11.00;;
19087;SDS011;9676;50.916;13.352;2023-02-24T05:30:04;11.90;;;10.70;;
19087;SDS011;9676;50.916;13.352;2023-02-24T05:32:56;11.67;;;10.60;;
19087;SDS011;9676;50.916;13.352;2023-02-24T05:35:45;12.50;;;11.30;;
19087;SDS011;9676;50.916;13.352;2023-02-24T05:38:35;11.00;;;10.00;;
19087;SDS011;9676;50.916;13.352;2023-02-24T05:41:26;11.70;;;10.50;;
19087;SDS011;9676;50.916;13.352;2023-02-24T05:44:19;11.10;;;10.10;;
19087;SDS011;9676;50.916;13.352;2023-02-24T05:47:12;11.10;;;10.10;;
19087;SDS011;9676;50.916;13.352;2023-02-24T05:50:06;10.30;;;9.37;;
19087;SDS011;9676;50.916;13.352;2023-02-24T05:52:58;10.60;;;9.70;;
19087;SDS011;9676;50.916;13.352;2023-02-24T05:55:49;10.40;;;9.50;;
19087;SDS011;9676;50.916;13.352;2023-02-24T05:58:40;9.80;;;9.10;;
19087;SDS011;9676;50.916;13.352;2023-02-24T06:01:31;10.00;;;9.20;;
19087;SDS011;9676;50.916;13.352;2023-02-24T06:04:23;10.10;;;9.30;;
19087;SDS011;9676;50.916;13.352;2023-02-24T06:07:27;9.90;;;9.10;;
19087;SDS011;9676;50.916;13.352;2023-02-24T06:10:20;10.60;;;9.70;;
19087;SDS011;9676;50.916;13.352;2023-02-24T06:13:09;10.27;;;9.47;;
19087;SDS011;9676;50.916;13.352;2023-02-24T06:16:00;10.10;;;9.30;;
19087;SDS011;9676;50.916;13.352;2023-02-24T06:18:49;10.17;;;9.30;;
19087;SDS011;9676;50.916;13.352;2023-02-24T06:21:40;9.90;;;9.13;;
19087;SDS011;9676;50.916;13.352;2023-02-24T06:24:31;9.90;;;9.10;;
19087;SDS011;9676;50.916;13.352;2023-02-24T06:27:20;10.20;;;9.40;;
19087;SDS011;9676;50.916;13.352;2023-02-24T06:30:12;9.93;;;9.13;;
19087;SDS011;9676;50.916;13.352;2023-02-24T06:33:03;10.20;;;9.40;;
19087;SDS011;9676;50.916;13.352;2023-02-24T06:35:53;10.43;;;9.53;;
19087;SDS011;9676;50.916;13.352;2023-02-24T06:38:42;10.10;;;9.30;;
19087;SDS011;9676;50.916;13.352;2023-02-24T06:41:32;9.87;;;9.07;;
19087;SDS011;9676;50.916;13.352;2023-02-24T06:44:24;10.00;;;9.20;;
19087;SDS011;9676;50.916;13.352;2023-02-24T06:47:13;9.90;;;9.10;;
19087;SDS011;9676;50.916;13.352;2023-02-24T06:50:06;10.07;;;9.27;;
19087;SDS011;9676;50.916;13.352;2023-02-24T06:52:56;9.83;;;9.10;;
19087;SDS011;9676;50.916;13.352;2023-02-24T06:55:47;9.77;;;8.97;;
19087;SDS011;9676;50.916;13.352;2023-02-24T06:58:36;9.50;;;8.80;;
19087;SDS011;9676;50.916;13.352;2023-02-24T07:01:26;9.97;;;9.17;;
19087;SDS011;9676;50.916;13.352;2023-02-24T07:04:16;9.87;;;9.07;;
19087;SDS011;9676;50.916;13.352;2023-02-24T07:07:08;9.50;;;8.80;;
19087;SDS011;9676;50.916;13.352;2023-02-24T07:10:00;9.60;;;8.90;;
19087;SDS011;9676;50.916;13.352;2023-02-24T07:12:49;9.70;;;8.90;;
19087;SDS011;9676;50.916;13.352;2023-02-24T07:15:40;9.60;;;8.90;;
19087;SDS011;9676;50.916;13.352;2023-02-24T07:18:35;9.33;;;8.73;;
19087;SDS011;9676;50.916;13.352;2023-02-24T07:21:28;9.40;;;8.70;;
19087;SDS011;9676;50.916;13.352;2023-02-24T07:24:27;9.60;;;8.90;;
19087;SDS011;9676;50.916;13.352;2023-02-24T07:27:23;9.40;;;8.80;;
19087;SDS011;9676;50.916;13.352;2023-02-24T07:30:14;9.90;;;9.10;;
19087;SDS011;9676;50.916;13.352;2023-02-24T07:33:04;9.57;;;8.87;;
19087;SDS011;9676;50.916;13.352;2023-02-24T07:35:54;9.50;;;8.90;;
19087;SDS011;9676;50.916;13.352;2023-02-24T07:38:44;10.03;;;9.13;;
19087;SDS011;9676;50.916;13.352;2023-02-24T07:41:34;9.67;;;8.97;;
19087;SDS011;9676;50.916;13.352;2023-02-24T07:44:24;10.10;;;9.20;;
19087;SDS011;9676;50.916;13.352;2023-02-24T07:47:15;9.47;;;8.80;;
19087;SDS011;9676;50.916;13.352;2023-02-24T07:50:05;9.90;;;9.10;;
19087;SDS011;9676;50.916;13.352;2023-02-24T07:53:00;10.03;;;9.10;;
19087;SDS011;9676;50.916;13.352;2023-02-24T07:55:51;9.67;;;8.90;;
19087;SDS011;9676;50.916;13.352;2023-02-24T07:58:42;9.73;;;8.93;;
19087;SDS011;9676;50.916;13.352;2023-02-24T08:01:32;9.60;;;8.90;;
19087;SDS011;9676;50.916;13.352;2023-02-24T08:04:25;9.90;;;9.10;;
19087;SDS011;9676;50.916;13.352;2023-02-24T08:07:20;9.47;;;8.80;;
19087;SDS011;9676;50.916;13.352;2023-02-24T08:10:12;10.00;;;9.10;;
19087;SDS011;9676;50.916;13.352;2023-02-24T08:13:10;9.70;;;8.90;;
19087;SDS011;9676;50.916;13.352;2023-02-24T08:16:01;9.60;;;8.90;;
19087;SDS011;9676;50.916;13.352;2023-02-24T08:18:53;9.60;;;8.90;;
19087;SDS011;9676;50.916;13.352;2023-02-24T08:21:44;9.83;;;9.03;;
19087;SDS011;9676;50.916;13.352;2023-02-24T08:24:36;10.67;;;9.77;;
19087;SDS011;9676;50.916;13.352;2023-02-24T08:27:27;11.10;;;10.10;;
19087;SDS011;9676;50.916;13.352;2023-02-24T08:30:17;10.87;;;9.87;;
19087;SDS011;9676;50.916;13.352;2023-02-24T08:33:12;11.53;;;10.33;;
19087;SDS011;9676;50.916;13.352;2023-02-24T08:36:06;11.10;;;10.10;;
19087;SDS011;9676;50.916;13.352;2023-02-24T08:38:56;11.20;;;10.10;;
19087;SDS011;9676;50.916;13.352;2023-02-24T08:41:46;10.93;;;9.83;;
19087;SDS011;9676;50.916;13.352;2023-02-24T08:44:37;10.60;;;9.70;;
19087;SDS011;9676;50.916;13.352;2023-02-24T08:47:28;10.27;;;9.47;;
19087;SDS011;9676;50.916;13.352;2023-02-24T08:50:23;10.53;;;9.60;;
19087;SDS011;9676;50.916;13.352;2023-02-24T08:53:17;10.03;;;9.23;;
19087;SDS011;9676;50.916;13.352;2023-02-24T08:56:07;9.93;;;9.17;;
19087;SDS011;9676;50.916;13.352;2023-02-24T08:59:00;10.17;;;9.17;;
19087;SDS011;9676;50.916;13.352;2023-02-24T09:01:52;10.07;;;9.27;;
19087;SDS011;9676;50.916;13.352;2023-02-24T09:05:04;9.90;;;9.07;;
19087;SDS011;9676;50.916;13.352;2023-02-24T09:08:01;9.53;;;8.83;;
19087;SDS011;9676;50.916;13.352;2023-02-24T09:10:51;10.43;;;9.43;;
19087;SDS011;9676;50.916;13.352;2023-02-24T09:13:41;9.90;;;9.10;;
19087;SDS011;9676;50.916;13.352;2023-02-24T09:16:44;10.13;;;9.33;;
19087;SDS011;9676;50.916;13.352;2023-02-24T09:19:52;9.90;;;9.10;;
19087;SDS011;9676;50.916;13.352;2023-02-24T09:22:59;10.00;;;9.20;;
19087;SDS011;9676;50.916;13.352;2023-02-24T09:25:52;9.70;;;9.00;;
19087;SDS011;9676;50.916;13.352;2023-02-24T09:28:41;9.70;;;9.00;;
19087;SDS011;9676;50.916;13.352;2023-02-24T09:31:40;9.83;;;9.03;;
19087;SDS011;9676;50.916;13.352;2023-02-24T09:34:41;9.80;;;9.00;;
19087;SDS011;9676;50.916;13.352;2023-02-24T09:37:31;9.97;;;9.17;;
19087;SDS011;9676;50.916;13.352;2023-02-24T09:40:22;10.10;;;9.30;;
19087;SDS011;9676;50.916;13.352;2023-02-24T09:43:26;9.90;;;9.10;;
19087;SDS011;9676;50.916;13.352;2023-02-24T09:46:26;10.10;;;9.20;;
19087;SDS011;9676;50.916;13.352;2023-02-24T09:49:16;9.67;;;8.97;;
19087;SDS011;9676;50.916;13.352;2023-02-24T09:52:08;9.83;;;8.93;;
19087;SDS011;9676;50.916;13.352;2023-02-24T09:55:03;9.40;;;8.70;;
19087;SDS011;9676;50.916;13.352;2023-02-24T09:58:13;9.63;;;8.83;;
19087;SDS011;9676;50.916;13.352;2023-02-24T10:01:32;9.77;;;9.00;;
19087;SDS011;9676;50.916;13.352;2023-02-24T10:04:33;9.50;;;8.80;;
19087;SDS011;9676;50.916;13.352;2023-02-24T10:07:40;9.73;;;9.03;;
19087;SDS011;9676;50.916;13.352;2023-02-24T10:10:32;9.60;;;8.80;;
19087;SDS011;9676;50.916;13.352;2023-02-24T10:13:26;9.43;;;8.73;;
19087;SDS011;9676;50.916;13.352;2023-02-24T10:16:21;10.10;;;9.30;;
19087;SDS011;9676;50.916;13.352;2023-02-24T10:19:16;10.20;;;9.20;;
19087;SDS011;9676;50.916;13.352;2023-02-24T10:22:14;9.90;;;9.10;;
19087;SDS011;9676;50.916;13.352;2023-02-24T10:25:32;10.03;;;9.20;;
19087;SDS011;9676;50.916;13.352;2023-02-24T10:28:32;10.30;;;9.27;;
19087;SDS011;9676;50.916;13.352;2023-02-24T10:31:33;9.50;;;8.80;;
19087;SDS011;9676;50.916;13.352;2023-02-24T10:34:34;9.93;;;9.13;;
19087;SDS011;9676;50.916;13.352;2023-02-24T10:37:23;10.10;;;9.30;;
19087;SDS011;9676;50.916;13.352;2023-02-24T10:40:16;9.87;;;9.07;;
19087;SDS011;9676;50.916;13.352;2023-02-24T10:43:14;9.80;;;9.00;;
19087;SDS011;9676;50.916;13.352;2023-02-24T10:46:17;10.17;;;9.27;;
19087;SDS011;9676;50.916;13.352;2023-02-24T10:49:26;10.00;;;9.20;;
19087;SDS011;9676;50.916;13.352;2023-02-24T10:52:15;10.37;;;9.37;;
19087;SDS011;9676;50.916;13.352;2023-02-24T10:55:24;10.80;;;9.70;;
19087;SDS011;9676;50.916;13.352;2023-02-24T10:58:38;11.03;;;10.03;;
19087;SDS011;9676;50.916;13.352;2023-02-24T11:01:37;11.07;;;10.00;;
19087;SDS011;9676;50.916;13.352;2023-02-24T11:04:42;10.93;;;9.93;;
19087;SDS011;9676;50.916;13.352;2023-02-24T11:07:50;10.60;;;9.60;;
19087;SDS011;9676;50.916;13.352;2023-02-24T11:10:57;10.70;;;9.70;;
19087;SDS011;9676;50.916;13.352;2023-02-24T11:13:53;11.07;;;9.97;;
19087;SDS011;9676;50.916;13.352;2023-02-24T11:17:19;10.87;;;9.87;;
19087;SDS011;9676;50.916;13.352;2023-02-24T11:20:16;11.40;;;10.33;;
19087;SDS011;9676;50.916;13.352;2023-02-24T11:23:29;10.93;;;10.03;;
19087;SDS011;9676;50.916;13.352;2023-02-24T11:26:23;11.67;;;10.67;;
19087;SDS011;9676;50.916;13.352;2023-02-24T11:29:19;11.10;;;10.07;;
19087;SDS011;9676;50.916;13.352;2023-02-24T11:32:34;10.70;;;9.80;;
19087;SDS011;9676;50.916;13.352;2023-02-24T11:35:41;11.00;;;10.00;;
19087;SDS011;9676;50.916;13.352;2023-02-24T11:38:37;11.60;;;10.50;;
19087;SDS011;9676;50.916;13.352;2023-02-24T11:41:34;11.67;;;10.50;;
19087;SDS011;9676;50.916;13.352;2023-02-24T11:44:28;10.40;;;9.50;;
19087;SDS011;9676;50.916;13.352;2023-02-24T11:47:26;10.90;;;9.90;;
19087;SDS011;9676;50.916;13.352;2023-02-24T11:50:36;10.93;;;9.93;;
19087;SDS011;9676;50.916;13.352;2023-02-24T11:53:31;11.23;;;10.20;;
19087;SDS011;9676;50.916;13.352;2023-02-24T11:56:24;10.80;;;9.80;;
19087;SDS011;9676;50.916;13.352;2023-02-24T11:59:17;11.30;;;10.20;;
19087;SDS011;9676;50.916;13.352;2023-02-24T12:02:18;10.63;;;9.70;;
19087;SDS011;9676;50.916;13.352;2023-02-24T12:05:20;10.60;;;9.70;;
19087;SDS011;9676;50.916;13.352;2023-02-24T12:08:17;10.90;;;9.90;;
19087;SDS011;9676;50.916;13.352;2023-02-24T12:11:17;11.03;;;10.07;;
19087;SDS011;9676;50.916;13.352;2023-02-24T12:14:24;10.70;;;9.70;;
19087;SDS011;9676;50.916;13.352;2023-02-24T12:17:23;10.40;;;9.50;;
19087;SDS011;9676;50.916;13.352;2023-02-24T12:20:22;11.07;;;10.07;;
19087;SDS011;9676;50.916;13.352;2023-02-24T12:23:21;10.77;;;9.67;;
19087;SDS011;9676;50.916;13.352;2023-02-24T12:26:21;10.57;;;9.63;;
19087;SDS011;9676;50.916;13.352;2023-02-24T12:29:19;10.80;;;9.80;;
19087;SDS011;9676;50.916;13.352;2023-02-24T12:32:30;10.40;;;9.50;;
19087;SDS011;9676;50.916;13.352;2023-02-24T12:35:39;11.03;;;10.00;;
19087;SDS011;9676;50.916;13.352;2023-02-24T12:38:40;11.00;;;10.00;;
19087;SDS011;9676;50.916;13.352;2023-02-24T12:41:46;10.67;;;9.67;;
19087;SDS011;9676;50.916;13.352;2023-02-24T12:44:47;10.70;;;9.70;;
19087;SDS011;9676;50.916;13.352;2023-02-24T12:47:48;10.60;;;9.70;;
19087;SDS011;9676;50.916;13.352;2023-02-24T12:50:53;10.83;;;9.83;;
19087;SDS011;9676;50.916;13.352;2023-02-24T12:53:55;10.43;;;9.53;;
19087;SDS011;9676;50.916;13.352;2023-02-24T12:56:51;10.90;;;10.00;;
19087;SDS011;9676;50.916;13.352;2023-02-24T12:59:47;11.07;;;10.07;;
19087;SDS011;9676;50.916;13.352;2023-02-24T13:02:39;10.67;;;9.70;;
19087;SDS011;9676;50.916;13.352;2023-02-24T13:05:42;11.17;;;10.10;;
19087;SDS011;9676;50.916;13.352;2023-02-24T13:08:41;11.13;;;10.10;;
19087;SDS011;9676;50.916;13.352;2023-02-24T13:11:43;11.30;;;10.30;;
19087;SDS011;9676;50.916;13.352;2023-02-24T13:14:40;11.10;;;10.10;;
19087;SDS011;9676;50.916;13.352;2023-02-24T13:17:30;12.33;;;11.03;;
19087;SDS011;9676;50.916;13.352;2023-02-24T13:20:28;11.97;;;10.87;;
19087;SDS011;9676;50.916;13.352;2023-02-24T13:23:20;11.87;;;10.73;;
19087;SDS011;9676;50.916;13.352;2023-02-24T13:26:11;11.63;;;10.50;;
19087;SDS011;9676;50.916;13.352;2023-02-24T13:29:11;11.50;;;10.40;;
19087;SDS011;9676;50.916;13.352;2023-02-24T13:32:02;12.60;;;10.60;;
19087;SDS011;9676;50.916;13.352;2023-02-24T13:34:52;11.30;;;10.30;;
19087;SDS011;9676;50.916;13.352;2023-02-24T13:37:42;11.30;;;10.30;;
19087;SDS011;9676;50.916;13.352;2023-02-24T13:40:33;10.73;;;9.73;;
19087;SDS011;9676;50.916;13.352;2023-02-24T13:43:26;17.33;;;10.60;;
19087;SDS011;9676;50.916;13.352;2023-02-24T13:46:17;11.87;;;10.67;;
19087;SDS011;9676;50.916;13.352;2023-02-24T13:49:25;11.50;;;10.40;;
19087;SDS011;9676;50.916;13.352;2023-02-24T13:52:24;10.90;;;9.90;;
19087;SDS011;9676;50.916;13.352;2023-02-24T13:55:31;11.40;;;10.30;;
19087;SDS011;9676;50.916;13.352;2023-02-24T13:58:35;12.27;;;10.90;;
19087;SDS011;9676;50.916;13.352;2023-02-24T14:01:44;11.30;;;10.30;;
19087;SDS011;9676;50.916;13.352;2023-02-24T14:04:37;10.73;;;9.77;;
19087;SDS011;9676;50.916;13.352;2023-02-24T14:07:35;11.10;;;10.00;;
19087;SDS011;9676;50.916;13.352;2023-02-24T14:10:26;10.70;;;9.77;;
19087;SDS011;9676;50.916;13.352;2023-02-24T14:13:21;11.40;;;10.40;;
19087;SDS011;9676;50.916;13.352;2023-02-24T14:16:16;11.50;;;10.40;;
19087;SDS011;9676;50.916;13.352;2023-02-24T14:19:11;11.37;;;10.27;;
19087;SDS011;9676;50.916;13.352;2023-02-24T14:22:03;11.80;;;10.70;;
19087;SDS011;9676;50.916;13.352;2023-02-24T14:24:59;11.70;;;10.60;;
19087;SDS011;9676;50.916;13.352;2023-02-24T14:27:50;11.77;;;10.60;;
19087;SDS011;9676;50.916;13.352;2023-02-24T14:30:41;12.43;;;11.13;;
19087;SDS011;9676;50.916;13.352;2023-02-24T14:33:33;13.63;;;10.73;;
19087;SDS011;9676;50.916;13.352;2023-02-24T14:36:25;11.83;;;10.63;;
19087;SDS011;9676;50.916;13.352;2023-02-24T14:39:18;11.53;;;10.40;;
19087;SDS011;9676;50.916;13.352;2023-02-24T14:42:12;11.37;;;10.30;;
19087;SDS011;9676;50.916;13.352;2023-02-24T14:45:15;11.10;;;10.10;;
19087;SDS011;9676;50.916;13.352;2023-02-24T14:48:18;11.60;;;10.50;;
19087;SDS011;9676;50.916;13.352;2023-02-24T14:51:29;11.50;;;10.40;;
19087;SDS011;9676;50.916;13.352;2023-02-24T14:54:24;11.00;;;10.00;;
19087;SDS011;9676;50.916;13.352;2023-02-24T14:57:26;11.70;;;10.50;;
19087;SDS011;9676;50.916;13.352;2023-02-24T15:00:20;10.90;;;9.90;;
19087;SDS011;9676;50.916;13.352;2023-02-24T15:03:14;11.50;;;10.40;;
19087;SDS011;9676;50.916;13.352;2023-02-24T15:06:12;11.20;;;10.20;;
19087;SDS011;9676;50.916;13.352;2023-02-24T15:09:10;11.60;;;10.40;;
19087;SDS011;9676;50.916;13.352;2023-02-24T15:12:07;11.67;;;10.50;;
19087;SDS011;9676;50.916;13.352;2023-02-24T15:15:01;11.50;;;10.40;;
19087;SDS011;9676;50.916;13.352;2023-02-24T15:17:54;11.40;;;10.40;;
19087;SDS011;9676;50.916;13.352;2023-02-24T15:20:57;12.17;;;10.40;;
19087;SDS011;9676;50.916;13.352;2023-02-24T15:23:56;10.97;;;9.93;;
19087;SDS011;9676;50.916;13.352;2023-02-24T15:26:51;11.90;;;10.70;;
19087;SDS011;9676;50.916;13.352;2023-02-24T15:29:43;11.40;;;10.30;;
19087;SDS011;9676;50.916;13.352;2023-02-24T15:32:46;10.90;;;9.90;;
19087;SDS011;9676;50.916;13.352;2023-02-24T15:35:36;10.70;;;9.80;;
19087;SDS011;9676;50.916;13.352;2023-02-24T15:38:35;11.57;;;10.40;;
19087;SDS011;9676;50.916;13.352;2023-02-24T15:41:37;11.07;;;10.07;;
19087;SDS011;9676;50.916;13.352;2023-02-24T15:44:29;11.80;;;10.70;;
19087;SDS011;9676;50.916;13.352;2023-02-24T15:47:21;11.90;;;10.80;;
19087;SDS011;9676;50.916;13.352;2023-02-24T15:50:13;11.40;;;10.40;;
19087;SDS011;9676;50.916;13.352;2023-02-24T15:53:02;12.30;;;11.20;;
19087;SDS011;9676;50.916;13.352;2023-02-24T15:55:55;12.07;;;10.87;;
19087;SDS011;9676;50.916;13.352;2023-02-24T15:58:45;11.87;;;10.67;;
19087;SDS011;9676;50.916;13.352;2023-02-24T16:01:35;11.60;;;10.40;;
19087;SDS011;9676;50.916;13.352;2023-02-24T16:04:24;11.67;;;10.47;;
19087;SDS011;9676;50.916;13.352;2023-02-24T16:07:15;11.33;;;10.23;;
19087;SDS011;9676;50.916;13.352;2023-02-24T16:10:13;11.47;;;10.37;;
19087;SDS011;9676;50.916;13.352;2023-02-24T16:13:05;11.43;;;10.33;;
19087;SDS011;9676;50.916;13.352;2023-02-24T16:16:05;11.17;;;10.13;;
19087;SDS011;9676;50.916;13.352;2023-02-24T16:18:59;11.03;;;9.93;;
19087;SDS011;9676;50.916;13.352;2023-02-24T16:21:48;11.70;;;10.50;;
19087;SDS011;9676;50.916;13.352;2023-02-24T16:24:38;13.07;;;10.50;;
19087;SDS011;9676;50.916;13.352;2023-02-24T16:27:27;14.90;;;10.40;;
19087;SDS011;9676;50.916;13.352;2023-02-24T16:30:18;11.60;;;10.50;;
19087;SDS011;9676;50.916;13.352;2023-02-24T16:33:10;11.53;;;10.37;;
19087;SDS011;9676;50.916;13.352;2023-02-24T16:36:01;11.73;;;10.10;;
19087;SDS011;9676;50.916;13.352;2023-02-24T16:38:51;11.00;;;10.00;;
19087;SDS011;9676;50.916;13.352;2023-02-24T16:41:40;11.03;;;10.03;;
19087;SDS011;9676;50.916;13.352;2023-02-24T16:44:30;11.30;;;10.20;;
19087;SDS011;9676;50.916;13.352;2023-02-24T16:47:19;10.90;;;9.90;;
19087;SDS011;9676;50.916;13.352;2023-02-24T16:50:18;11.70;;;10.60;;
19087;SDS011;9676;50.916;13.352;2023-02-24T16:53:10;11.10;;;10.10;;
19087;SDS011;9676;50.916;13.352;2023-02-24T16:56:05;10.87;;;9.90;;
19087;SDS011;9676;50.916;13.352;2023-02-24T16:58:55;10.80;;;9.80;;
19087;SDS011;9676;50.916;13.352;2023-02-24T17:01:44;11.00;;;10.00;;
19087;SDS011;9676;50.916;13.352;2023-02-24T17:04:34;11.93;;;10.60;;
19087;SDS011;9676;50.916;13.352;2023-02-24T17:07:25;10.77;;;9.87;;
19087;SDS011;9676;50.916;13.352;2023-02-24T17:10:14;11.60;;;10.50;;
19087;SDS011;9676;50.916;13.352;2023-02-24T17:13:05;11.83;;;10.73;;
19087;SDS011;9676;50.916;13.352;2023-02-24T17:15:54;11.40;;;10.40;;